Time;durP1;ratioP1;P1;durP2;ratioP2;P2;SDS_P1;SDS_P2;PMS_P1;PMS_P2;Temp;Humidity;BMP_temperature;BMP_pressure;BME280_temperature;BME280_humidity;BME280_pressure;Samples;Min_cycle;Max_cycle;Signal;HPM_P1;HPM_P2
2022/07/10 00:00:55;;;;;;;2.63;1.00;;;18.40;1.00;;;;;;6102733;23;20382;-90
2022/07/10 00:03:23;;;;;;;3.08;0.88;;;18.50;1.00;;;;;;6078070;23;20028;-90
2022/07/10 00:05:50;;;;;;;1.88;0.70;;;18.60;1.00;;;;;;6078691;23;20022;-90
2022/07/10 00:08:17;;;;;;;4.55;0.75;;;18.60;1.00;;;;;;6078232;23;20438;-90
2022/07/10 00:10:45;;;;;;;2.08;0.40;;;18.60;1.00;;;;;;6127676;23;20028;-90
2022/07/10 00:13:12;;;;;;;6.57;1.13;;;18.60;1.00;;;;;;6077655;23;20097;-90
2022/07/10 00:15:39;;;;;;;1.83;0.60;;;18.60;1.00;;;;;;6102284;23;20038;-90
2022/07/10 00:18:06;;;;;;;3.10;0.47;;;18.50;1.00;;;;;;6102117;23;20021;-90
2022/07/10 00:20:35;;;;;;;3.55;0.60;;;18.50;1.00;;;;;;6127812;23;20477;-90
2022/07/10 00:23:02;;;;;;;3.97;0.57;;;18.50;1.00;;;;;;6127640;23;20462;-91
2022/07/10 00:25:30;;;;;;;4.10;0.88;;;18.50;1.00;;;;;;6102493;23;20018;-90
2022/07/10 00:27:57;;;;;;;4.13;0.57;;;18.60;1.00;;;;;;6102416;23;20014;-90
2022/07/10 00:30:26;;;;;;;5.40;0.80;;;18.60;1.00;;;;;;6101966;23;20014;-90
2022/07/10 00:32:55;;;;;;;2.15;0.88;;;18.50;1.00;;;;;;6102296;23;20081;-89
2022/07/10 00:35:23;;;;;;;3.00;0.60;;;18.40;1.00;;;;;;6102214;23;20013;-90
2022/07/10 00:37:50;;;;;;;5.03;1.02;;;18.50;1.00;;;;;;6101835;23;20022;-90
2022/07/10 00:40:17;;;;;;;5.63;0.60;;;18.40;1.00;;;;;;6127504;23;20045;-89
2022/07/10 00:42:44;;;;;;;1.38;0.55;;;18.30;1.00;;;;;;6127381;23;20014;-90
2022/07/10 00:45:14;;;;;;;3.20;0.50;;;18.40;1.00;;;;;;6101379;23;20018;-90
2022/07/10 00:47:42;;;;;;;1.13;0.65;;;18.40;1.00;;;;;;6101197;23;20045;-90
2022/07/10 00:50:09;;;;;;;2.40;0.73;;;18.40;1.00;;;;;;6078179;23;20065;-90
2022/07/10 00:52:38;;;;;;;3.45;1.63;;;18.40;1.00;;;;;;6102568;23;20065;-90
2022/07/10 00:55:09;;;;;;;3.97;0.73;;;18.30;1.00;;;;;;6078030;23;20014;-90
2022/07/10 00:57:38;;;;;;;4.07;0.70;;;18.40;1.00;;;;;;6077420;23;20073;-90
2022/07/10 01:00:05;;;;;;;5.05;1.48;;;18.40;1.00;;;;;;6102061;23;20017;-89
2022/07/10 01:02:33;;;;;;;6.90;1.13;;;18.30;1.00;;;;;;6127662;23;20017;-90
2022/07/10 01:05:00;;;;;;;3.28;0.85;;;18.20;1.00;;;;;;6101286;23;20040;-90
2022/07/10 01:07:27;;;;;;;6.05;0.75;;;18.10;1.00;;;;;;6077646;23;20026;-90
2022/07/10 01:09:56;;;;;;;5.28;0.98;;;18.20;1.00;;;;;;6077856;23;20029;-90
2022/07/10 01:12:24;;;;;;;0.98;0.40;;;18.20;1.00;;;;;;6077985;23;20014;-90
2022/07/10 01:14:51;;;;;;;2.20;0.73;;;18.30;1.00;;;;;;6102344;23;20022;-90
2022/07/10 01:17:23;;;;;;;4.97;0.95;;;18.30;1.00;;;;;;6102115;23;20378;-90
2022/07/10 01:19:51;;;;;;;3.83;0.85;;;18.30;1.00;;;;;;6078047;23;20045;-90
2022/07/10 01:22:21;;;;;;;5.65;0.88;;;18.30;1.00;;;;;;6102381;23;20018;-91
2022/07/10 01:24:52;;;;;;;6.80;2.45;;;18.30;1.00;;;;;;6078682;23;20025;-90
2022/07/10 01:27:19;;;;;;;7.70;1.15;;;18.20;1.00;;;;;;6102555;23;20014;-90
2022/07/10 01:29:54;;;;;;;2.43;0.63;;;18.10;1.00;;;;;;6102762;23;20069;-90
2022/07/10 01:32:25;;;;;;;6.38;0.80;;;18.00;1.00;;;;;;6127163;23;20026;-91
2022/07/10 01:34:57;;;;;;;2.63;0.80;;;18.10;1.00;;;;;;6127253;23;20474;-90
2022/07/10 01:37:24;;;;;;;2.88;0.60;;;18.10;1.00;;;;;;6101247;23;20088;-90
2022/07/10 01:39:54;;;;;;;7.93;1.33;;;17.90;1.00;;;;;;6126945;23;20024;-89
2022/07/10 01:42:21;;;;;;;6.88;1.13;;;17.80;1.00;;;;;;6101748;23;20093;-90
2022/07/10 01:44:49;;;;;;;4.90;0.80;;;17.90;1.00;;;;;;6101214;23;20469;-90
2022/07/10 01:47:19;;;;;;;4.47;1.00;;;17.90;1.00;;;;;;6101659;23;20025;-89
2022/07/10 01:49:46;;;;;;;6.45;1.45;;;18.00;1.00;;;;;;6127619;23;20435;-89
2022/07/10 01:52:16;;;;;;;5.13;1.17;;;18.00;1.00;;;;;;6102211;23;20453;-89
2022/07/10 01:54:47;;;;;;;6.50;1.35;;;17.90;1.00;;;;;;6101708;23;20018;-90
2022/07/10 01:57:16;;;;;;;3.05;0.98;;;17.80;1.00;;;;;;6102152;23;20334;-89
2022/07/10 01:59:44;;;;;;;4.28;1.02;;;17.90;1.00;;;;;;6101742;23;20017;-89
2022/07/10 02:02:11;;;;;;;1.77;0.50;;;17.80;1.00;;;;;;6127653;23;20018;-89
2022/07/10 02:04:41;;;;;;;6.03;1.05;;;18.00;1.00;;;;;;6078978;23;20108;-89
2022/07/10 02:07:09;;;;;;;6.30;2.03;;;18.00;1.00;;;;;;6116230;23;20021;-90
2022/07/10 02:09:37;;;;;;;4.40;0.70;;;18.10;1.00;;;;;;6099120;23;20081;-90
2022/07/10 02:12:05;;;;;;;4.40;0.93;;;18.00;1.00;;;;;;6102268;23;20079;-90
2022/07/10 02:14:33;;;;;;;6.53;1.38;;;17.90;1.00;;;;;;6127935;23;20018;-90
2022/07/10 02:17:00;;;;;;;6.57;1.40;;;17.90;1.00;;;;;;6104915;23;20061;-90
2022/07/10 02:19:28;;;;;;;5.72;1.50;;;17.70;1.00;;;;;;6119483;23;20041;-90
2022/07/10 02:21:56;;;;;;;4.88;1.02;;;17.60;1.00;;;;;;6077905;23;20045;-90
2022/07/10 02:24:24;;;;;;;4.47;1.42;;;17.80;1.00;;;;;;6101286;23;20018;-91
2022/07/10 02:26:51;;;;;;;3.10;1.40;;;17.80;1.00;;;;;;6101404;23;20498;-90
2022/07/10 02:29:19;;;;;;;5.20;1.38;;;17.80;1.00;;;;;;6100951;23;20024;-90
2022/07/10 02:31:46;;;;;;;8.25;1.00;;;17.90;1.00;;;;;;6077423;23;20504;-90
2022/07/10 02:34:14;;;;;;;3.42;0.68;;;17.90;1.00;;;;;;6101166;23;20061;-90
2022/07/10 02:36:41;;;;;;;5.10;1.38;;;17.80;1.00;;;;;;6077071;23;20022;-90
2022/07/10 02:39:09;;;;;;;2.38;0.80;;;17.70;1.00;;;;;;6076599;23;20029;-90
2022/07/10 02:41:36;;;;;;;5.70;1.92;;;17.80;1.00;;;;;;6101154;23;20375;-90
2022/07/10 02:44:05;;;;;;;3.28;0.98;;;17.90;1.00;;;;;;6101141;23;20350;-90
2022/07/10 02:46:32;;;;;;;3.22;1.10;;;17.80;1.00;;;;;;6126579;23;20018;-90
2022/07/10 02:49:00;;;;;;;2.95;0.52;;;17.80;1.00;;;;;;6101653;23;20041;-90
2022/07/10 02:51:27;;;;;;;5.18;1.25;;;17.80;1.00;;;;;;6115807;23;20025;-90
2022/07/10 02:53:54;;;;;;;2.95;1.08;;;17.90;1.00;;;;;;6097954;23;20349;-90
2022/07/10 02:56:21;;;;;;;4.22;0.93;;;18.00;1.00;;;;;;6088104;23;20017;-90
2022/07/10 02:58:48;;;;;;;5.50;1.40;;;17.90;1.00;;;;;;6080447;23;20085;-90
2022/07/10 03:01:16;;;;;;;7.10;1.30;;;17.90;1.00;;;;;;6079823;23;20025;-90
2022/07/10 03:03:44;;;;;;;4.47;1.02;;;17.90;1.00;;;;;;6102969;23;20026;-90
2022/07/10 03:06:11;;;;;;;7.53;1.00;;;17.80;1.00;;;;;;6102643;23;20041;-90
2022/07/10 03:08:38;;;;;;;6.68;1.52;;;17.70;1.00;;;;;;6079448;23;20022;-89
2022/07/10 03:11:05;;;;;;;1.95;0.90;;;17.80;1.00;;;;;;6103590;23;20069;-90
2022/07/10 03:13:33;;;;;;;2.78;1.10;;;17.80;1.00;;;;;;6129249;23;20018;-89
2022/07/10 03:16:03;;;;;;;1.30;0.50;;;17.90;1.00;;;;;;6103884;23;20037;-89
2022/07/10 03:18:33;;;;;;;4.15;1.15;;;17.80;1.00;;;;;;6103044;23;20022;-90
2022/07/10 03:21:01;;;;;;;3.58;0.75;;;17.70;1.00;;;;;;6102805;23;20080;-90
2022/07/10 03:23:28;;;;;;;3.75;1.35;;;17.70;1.00;;;;;;6128640;23;20362;-89
2022/07/10 03:25:55;;;;;;;5.72;1.05;;;17.60;1.00;;;;;;6102861;23;20022;-90
2022/07/10 03:28:25;;;;;;;2.05;0.80;;;17.60;1.00;;;;;;6102813;23;20010;-90
2022/07/10 03:30:52;;;;;;;6.43;1.17;;;17.60;1.00;;;;;;6128667;23;20061;-90
2022/07/10 03:33:19;;;;;;;2.78;0.85;;;17.60;1.00;;;;;;6102861;23;20061;-89
2022/07/10 03:35:51;;;;;;;4.03;0.85;;;17.60;1.00;;;;;;6103136;23;20346;-90
2022/07/10 03:38:18;;;;;;;10.25;1.45;;;17.50;1.00;;;;;;6103049;23;20078;-90
2022/07/10 03:40:47;;;;;;;5.78;1.83;;;17.50;1.00;;;;;;6074496;23;20045;-90
2022/07/10 03:43:15;;;;;;;3.65;0.98;;;17.50;1.00;;;;;;6098359;23;20017;-90
2022/07/10 03:45:42;;;;;;;3.95;0.85;;;17.50;1.00;;;;;;6097578;23;20022;-90
2022/07/10 03:48:09;;;;;;;3.65;0.98;;;17.60;1.00;;;;;;6099619;23;20014;-90
2022/07/10 03:50:39;;;;;;;2.05;0.70;;;17.60;1.00;;;;;;6097707;23;20065;-89
2022/07/10 03:53:10;;;;;;;5.18;0.75;;;17.50;1.00;;;;;;6073916;23;20026;-89
2022/07/10 03:55:47;;;;;;;2.92;0.70;;;17.50;1.00;;;;;;6076112;23;20046;-91
2022/07/10 03:58:14;;;;;;;2.70;0.73;;;17.50;1.00;;;;;;6074178;23;20019;-89
2022/07/10 04:00:43;;;;;;;3.42;0.88;;;17.60;1.00;;;;;;6097337;23;20018;-90
2022/07/10 04:03:11;;;;;;;7.28;1.35;;;17.60;1.00;;;;;;6071904;23;20041;-90
2022/07/10 04:05:42;;;;;;;1.50;0.80;;;17.50;1.00;;;;;;6096344;23;20019;-90
2022/07/10 04:08:13;;;;;;;4.93;1.30;;;17.40;1.00;;;;;;6071281;23;20312;-89
2022/07/10 04:10:43;;;;;;;4.95;1.00;;;17.40;1.00;;;;;;6094431;23;20092;-90
2022/07/10 04:13:11;;;;;;;3.97;1.25;;;17.50;1.00;;;;;;6071732;23;20025;-90
2022/07/10 04:15:47;;;;;;;3.80;0.88;;;17.50;1.00;;;;;;6097642;23;20029;-89
2022/07/10 04:18:15;;;;;;;4.32;0.88;;;17.60;1.00;;;;;;6097361;23;20042;-90
2022/07/10 04:20:45;;;;;;;3.22;0.90;;;17.50;1.00;;;;;;6073737;23;20018;-90
2022/07/10 04:23:15;;;;;;;5.07;0.75;;;17.50;1.00;;;;;;6098559;23;20089;-90
2022/07/10 04:25:43;;;;;;;3.55;0.60;;;17.50;1.00;;;;;;6097329;23;20019;-90
2022/07/10 04:28:10;;;;;;;3.47;0.57;;;17.40;1.00;;;;;;6097430;23;20014;-90
2022/07/10 04:30:41;;;;;;;4.20;0.80;;;17.40;1.00;;;;;;6073253;23;20105;-90
2022/07/10 04:33:08;;;;;;;7.82;0.70;;;17.50;1.00;;;;;;6098020;23;20408;-90
2022/07/10 04:35:35;;;;;;;4.43;0.70;;;17.50;1.00;;;;;;6073400;23;20445;-90
2022/07/10 04:38:05;;;;;;;2.05;0.52;;;17.50;1.00;;;;;;6097074;23;20085;-90
2022/07/10 04:40:32;;;;;;;2.17;0.63;;;17.50;1.00;;;;;;6097101;23;20093;-89
2022/07/10 04:43:00;;;;;;;4.22;0.70;;;17.50;1.00;;;;;;6096991;23;20026;-90
2022/07/10 04:45:27;;;;;;;4.13;0.70;;;17.50;1.00;;;;;;6097261;23;20018;-90
2022/07/10 04:47:55;;;;;;;8.00;1.20;;;17.50;1.00;;;;;;6098861;23;20029;-90
2022/07/10 04:50:23;;;;;;;1.75;0.60;;;17.50;1.00;;;;;;6073310;23;20030;-90
2022/07/10 04:52:50;;;;;;;2.20;0.75;;;17.40;1.00;;;;;;6098998;23;20014;-90
2022/07/10 04:55:21;;;;;;;1.10;0.52;;;17.40;1.00;;;;;;6074823;23;20019;-90
2022/07/10 04:57:49;;;;;;;1.45;0.65;;;17.50;1.00;;;;;;6092589;23;20015;-90
2022/07/10 05:00:16;;;;;;;3.63;0.50;;;17.50;1.00;;;;;;6119723;23;20046;-89
2022/07/10 05:02:43;;;;;;;5.97;0.98;;;17.50;1.00;;;;;;6124543;23;20010;-90
2022/07/10 05:05:11;;;;;;;2.28;0.85;;;17.50;1.00;;;;;;6124058;23;20050;-89
2022/07/10 05:07:38;;;;;;;4.28;0.68;;;17.50;1.00;;;;;;6124527;23;20010;-89
2022/07/10 05:10:07;;;;;;;2.28;0.60;;;17.50;1.00;;;;;;6086604;23;20070;-90
2022/07/10 05:12:35;;;;;;;2.47;0.80;;;17.60;1.00;;;;;;6073807;23;20026;-90
2022/07/10 05:15:03;;;;;;;5.60;1.10;;;17.50;1.00;;;;;;6099167;23;20021;-90
2022/07/10 05:17:33;;;;;;;2.35;0.57;;;17.50;1.00;;;;;;6096782;23;20453;-90
2022/07/10 05:20:01;;;;;;;4.15;1.40;;;17.50;1.00;;;;;;6073031;23;20032;-90
2022/07/10 05:22:30;;;;;;;3.17;0.70;;;17.50;1.00;;;;;;6097998;23;20026;-90
2022/07/10 05:24:57;;;;;;;4.40;0.70;;;17.50;1.00;;;;;;6096667;23;20089;-90
2022/07/10 05:27:25;;;;;;;2.88;0.70;;;17.50;1.00;;;;;;6098347;23;20097;-90
2022/07/10 05:29:52;;;;;;;3.83;0.70;;;17.50;1.00;;;;;;6096693;23;20301;-91
2022/07/10 05:32:19;;;;;;;4.90;0.95;;;17.50;1.00;;;;;;6072977;23;20066;-89
2022/07/10 05:34:47;;;;;;;2.33;0.93;;;17.50;1.00;;;;;;6096304;23;20023;-90
2022/07/10 05:37:15;;;;;;;1.42;0.60;;;17.50;1.00;;;;;;6098242;23;20018;-90
2022/07/10 05:39:42;;;;;;;1.85;0.60;;;17.50;1.00;;;;;;6096619;23;20045;-90
2022/07/10 05:42:13;;;;;;;5.25;1.42;;;17.40;1.00;;;;;;6073482;23;20026;-89
2022/07/10 05:44:40;;;;;;;2.15;0.82;;;17.50;1.00;;;;;;6096498;23;20018;-89
2022/07/10 05:47:07;;;;;;;6.65;0.95;;;17.50;1.00;;;;;;6096030;23;20506;-89
2022/07/10 05:49:35;;;;;;;3.22;0.73;;;17.50;1.00;;;;;;6072392;23;20072;-89
2022/07/10 05:52:05;;;;;;;5.55;1.02;;;17.50;1.00;;;;;;6072246;23;20419;-89
2022/07/10 05:54:39;;;;;;;2.45;0.93;;;17.50;1.00;;;;;;6096120;23;20021;-89
2022/07/10 05:57:07;;;;;;;1.73;0.80;;;17.50;1.00;;;;;;6098215;23;20010;-89
2022/07/10 05:59:36;;;;;;;3.25;0.82;;;17.60;1.00;;;;;;6097898;23;20022;-89
2022/07/10 06:02:04;;;;;;;3.10;0.45;;;17.60;1.00;;;;;;6072646;23;20049;-90
2022/07/10 06:04:31;;;;;;;1.80;0.50;;;17.60;1.00;;;;;;6096596;23;20028;-89
2022/07/10 06:06:58;;;;;;;4.22;1.73;;;17.60;1.00;;;;;;6096701;23;20026;-90
2022/07/10 06:09:27;;;;;;;3.75;0.70;;;17.60;1.00;;;;;;6096497;23;20035;-90
2022/07/10 06:11:54;;;;;;;2.38;0.70;;;17.60;1.00;;;;;;6072897;23;20018;-91
2022/07/10 06:15:28;;;;;;;5.32;0.80;;;17.60;1.00;;;;;;6073157;23;20028;-93
2022/07/10 06:18:01;;;;;;;3.92;1.00;;;17.70;1.00;;;;;;5922667;24;20021;-89
2022/07/10 06:20:32;;;;;;;5.22;0.73;;;17.60;1.00;;;;;;5959053;24;20024;-91
2022/07/10 06:23:07;;;;;;;4.30;0.93;;;17.60;1.00;;;;;;5960114;24;20099;-93
2022/07/10 06:25:56;;;;;;;;;;;;;;;;;;;;;
2022/07/10 06:29:10;;;;;;;3.10;0.70;;;17.80;1.00;;;;;;6100354;23;20065;-92
2022/07/10 06:32:50;;;;;;;;;;;;;;;;;;;;;
2022/07/10 06:47:56;;;;;;;2.00;1.35;;;17.90;1.00;;;;;;6128293;23;20113;-92
2022/07/10 06:50:30;;;;;;;1.33;0.60;;;18.00;1.00;;;;;;6104124;23;20506;-91
2022/07/10 06:53:17;;;;;;;2.03;0.77;;;18.00;1.00;;;;;;6075567;23;20041;-92
2022/07/10 06:55:49;;;;;;;1.88;0.93;;;18.10;1.00;;;;;;6127319;23;20018;-89
2022/07/10 06:58:16;;;;;;;3.70;1.40;;;18.00;1.00;;;;;;6128029;23;20017;-89
2022/07/10 07:00:59;;;;;;;1.98;0.75;;;18.10;1.00;;;;;;6128064;23;20033;-92
2022/07/10 07:03:37;;;;;;;3.42;0.73;;;18.10;1.00;;;;;;6105007;23;20021;-93
2022/07/10 07:06:38;;;;;;;2.50;0.70;;;18.10;1.00;;;;;;6131363;23;20036;-93
2022/07/10 07:09:49;;;;;;;1.52;0.88;;;18.20;1.00;;;;;;6153248;23;20020;-93
2022/07/10 07:23:09;;;;;;;4.03;0.75;;;18.20;1.00;;;;;;6158804;23;20081;-92
2022/07/10 07:25:36;;;;;;;2.08;0.93;;;18.20;1.00;;;;;;6130036;23;20018;-91
2022/07/10 07:29:05;;;;;;;;;;;;;;;;;;;;;
2022/07/10 07:32:09;;;;;;;2.65;0.90;;;18.30;1.00;;;;;;6055452;23;20025;-93
2022/07/10 07:34:39;;;;;;;2.88;0.60;;;18.40;1.00;;;;;;6080396;23;20026;-88
2022/07/10 07:37:10;;;;;;;1.73;0.57;;;18.40;1.00;;;;;;6082999;23;20027;-88
2022/07/10 07:39:37;;;;;;;2.42;0.63;;;18.40;1.00;;;;;;6102896;23;20025;-87
2022/07/10 07:42:04;;;;;;;1.05;0.80;;;18.40;1.00;;;;;;6102548;23;20069;-89
2022/07/10 07:44:31;;;;;;;2.85;0.57;;;18.40;1.00;;;;;;6078626;23;20085;-88
2022/07/10 07:46:58;;;;;;;0.85;0.50;;;18.40;1.00;;;;;;6122419;23;20056;-88
2022/07/10 07:49:25;;;;;;;1.05;0.55;;;18.50;1.00;;;;;;6128333;23;20006;-89
2022/07/10 07:51:52;;;;;;;2.83;0.70;;;18.60;1.00;;;;;;6129219;23;20032;-89
2022/07/10 07:54:19;;;;;;;1.02;0.50;;;18.60;1.00;;;;;;6130247;23;20002;-87
2022/07/10 07:56:46;;;;;;;1.65;0.68;;;18.60;1.00;;;;;;6106544;23;20002;-88
2022/07/10 07:59:13;;;;;;;1.90;0.55;;;18.60;1.00;;;;;;6115846;23;20014;-89
2022/07/10 08:01:40;;;;;;;1.02;0.40;;;18.70;1.00;;;;;;6102642;23;20045;-89
2022/07/10 08:04:09;;;;;;;2.35;0.60;;;18.70;1.00;;;;;;6102541;23;20438;-89
2022/07/10 08:06:37;;;;;;;1.80;1.20;;;18.70;1.00;;;;;;6101935;23;20390;-89
2022/07/10 08:09:04;;;;;;;2.25;0.60;;;18.70;1.00;;;;;;6102120;23;20123;-88
2022/07/10 08:11:31;;;;;;;1.13;0.50;;;18.70;1.00;;;;;;6102163;23;20017;-89
2022/07/10 08:13:58;;;;;;;2.45;0.93;;;18.70;1.00;;;;;;6102107;23;20327;-89
2022/07/10 08:16:25;;;;;;;1.38;0.70;;;18.70;1.00;;;;;;6101917;23;20088;-88
2022/07/10 08:18:52;;;;;;;4.43;0.77;;;18.80;1.00;;;;;;6102171;23;20018;-88
2022/07/10 08:21:19;;;;;;;0.95;0.32;;;18.90;1.00;;;;;;6127933;23;20021;-89
2022/07/10 08:23:46;;;;;;;3.53;0.98;;;18.90;1.00;;;;;;6102059;23;20355;-88
2022/07/10 08:26:13;;;;;;;1.90;0.75;;;18.90;1.00;;;;;;6102085;23;20022;-88
2022/07/10 08:28:40;;;;;;;2.47;1.30;;;19.00;1.00;;;;;;6102083;23;20076;-88
2022/07/10 08:31:07;;;;;;;3.40;0.52;;;19.00;1.00;;;;;;6127058;23;20438;-89
2022/07/10 08:33:41;;;;;;;4.22;0.82;;;19.10;1.00;;;;;;6078793;23;20053;-88
2022/07/10 08:36:09;;;;;;;3.08;0.82;;;19.10;1.00;;;;;;6077578;23;20025;-89
2022/07/10 08:38:58;;;;;;;1.10;0.50;;;19.10;1.00;;;;;;6101129;23;20100;-88
2022/07/10 08:41:26;;;;;;;4.35;0.93;;;19.10;1.00;;;;;;6101573;23;20029;-88
2022/07/10 08:43:53;;;;;;;1.40;0.50;;;19.20;1.00;;;;;;6101454;23;20077;-88
2022/07/10 08:46:21;;;;;;;5.25;0.93;;;19.30;1.00;;;;;;6101150;23;20064;-88
2022/07/10 08:48:52;;;;;;;2.05;0.82;;;19.40;1.00;;;;;;6101447;23;20104;-88
2022/07/10 08:51:44;;;;;;;2.33;0.80;;;19.30;1.00;;;;;;6101562;23;20022;-89
2022/07/10 08:54:15;;;;;;;2.92;0.85;;;19.40;1.00;;;;;;6102095;23;20025;-89
2022/07/10 08:56:48;;;;;;;1.90;0.57;;;19.50;1.00;;;;;;6101081;23;20018;-89
2022/07/10 08:59:16;;;;;;;2.22;0.80;;;19.50;1.00;;;;;;6101926;23;20354;-89
2022/07/10 09:01:43;;;;;;;2.08;0.50;;;19.60;1.00;;;;;;6101273;23;20060;-89
2022/07/10 09:04:20;;;;;;;2.50;0.88;;;19.50;1.00;;;;;;6101406;23;20022;-89
2022/07/10 09:06:48;;;;;;;2.13;1.17;;;19.60;1.00;;;;;;6101514;23;20497;-88
2022/07/10 09:09:15;;;;;;;2.67;0.70;;;19.70;1.00;;;;;;6101308;23;20100;-88
2022/07/10 09:11:42;;;;;;;2.05;0.55;;;19.70;1.00;;;;;;6077051;23;20018;-89
2022/07/10 09:14:22;;;;;;;1.23;0.40;;;19.70;1.00;;;;;;6101397;23;20319;-89
2022/07/10 09:17:02;;;;;;;2.00;0.70;;;19.70;1.00;;;;;;6127009;23;20395;-89
2022/07/10 09:19:29;;;;;;;1.38;0.57;;;19.80;1.00;;;;;;6077337;23;20029;-89
2022/07/10 09:22:06;;;;;;;5.45;0.68;;;19.80;1.00;;;;;;6077076;23;20022;-88
2022/07/10 09:24:45;;;;;;;3.28;0.55;;;19.90;1.00;;;;;;6077198;23;20048;-90
2022/07/10 09:27:15;;;;;;;2.45;0.65;;;19.90;1.00;;;;;;6077764;23;20036;-89
2022/07/10 09:29:57;;;;;;;1.25;0.50;;;20.00;1.00;;;;;;6101078;23;20069;-88
2022/07/10 09:32:26;;;;;;;4.55;0.98;;;20.10;1.00;;;;;;6126788;23;20014;-89
2022/07/10 09:36:04;;;;;;;1.88;0.30;;;20.10;1.00;;;;;;6077042;23;20438;-89
2022/07/10 09:37:42;;;;;;;6.10;1.15;;;20.30;1.00;;;;;;6100783;23;20025;-89
2022/07/10 09:40:09;;;;;;;0.90;0.50;;;20.30;1.00;;;;;;6127202;23;20045;-88
2022/07/10 09:42:43;;;;;;;2.60;0.85;;;20.40;1.00;;;;;;6126940;23;20058;-88
2022/07/10 09:45:11;;;;;;;3.03;0.88;;;20.40;1.00;;;;;;6101727;23;20077;-89
2022/07/10 09:47:38;;;;;;;1.50;0.60;;;20.40;1.00;;;;;;6101875;23;20029;-88
2022/07/10 09:50:31;;;;;;;3.08;1.00;;;20.50;1.00;;;;;;6101182;23;20104;-88
2022/07/10 09:53:00;;;;;;;1.67;0.52;;;20.60;1.00;;;;;;6101535;23;20442;-89
2022/07/10 09:55:30;;;;;;;2.55;0.98;;;20.70;1.00;;;;;;6101060;23;20014;-88
2022/07/10 09:58:01;;;;;;;4.15;1.00;;;20.70;1.00;;;;;;6101430;23;20069;-88
2022/07/10 10:00:30;;;;;;;7.63;0.85;;;20.70;1.00;;;;;;6077268;23;20025;-90
2022/07/10 10:02:59;;;;;;;3.08;1.25;;;20.80;1.00;;;;;;6100443;23;20025;-88
2022/07/10 10:05:37;;;;;;;1.67;0.40;;;20.90;1.00;;;;;;6126381;23;20397;-89
2022/07/10 10:08:25;;;;;;;3.33;0.60;;;21.00;1.00;;;;;;6076823;23;20018;-89
2022/07/10 10:10:55;;;;;;;2.75;0.85;;;21.10;1.00;;;;;;6101315;23;20461;-89
2022/07/10 10:13:23;;;;;;;1.40;0.32;;;21.20;1.00;;;;;;6126124;23;20509;-90
2022/07/10 10:15:51;;;;;;;3.08;0.73;;;21.10;1.00;;;;;;6100695;23;20038;-90
2022/07/10 10:18:23;;;;;;;3.53;0.63;;;21.20;1.00;;;;;;6101184;23;20018;-89
2022/07/10 10:20:52;;;;;;;3.57;0.90;;;21.20;1.00;;;;;;6101176;23;20022;-89
2022/07/10 10:23:22;;;;;;;4.15;0.50;;;21.30;1.00;;;;;;6077567;23;20033;-89
2022/07/10 10:25:51;;;;;;;2.90;0.57;;;21.40;1.00;;;;;;6077574;23;20345;-89
2022/07/10 10:28:26;;;;;;;2.60;0.65;;;21.50;1.00;;;;;;6101789;23;20030;-89
2022/07/10 10:31:01;;;;;;;5.00;0.88;;;21.70;1.00;;;;;;6129846;23;20014;-90
2022/07/10 10:33:51;;;;;;;3.15;0.57;;;21.70;1.00;;;;;;6105024;23;20018;-89
2022/07/10 10:36:47;;;;;;;1.55;0.80;;;21.80;1.00;;;;;;6128712;23;20009;-89
2022/07/10 10:39:21;;;;;;;4.45;1.15;;;21.90;1.00;;;;;;6129349;23;20014;-88
2022/07/10 10:41:53;;;;;;;1.25;0.50;;;21.90;1.00;;;;;;6105416;23;20006;-89
2022/07/10 10:44:24;;;;;;;1.67;0.60;;;21.90;1.00;;;;;;6129741;23;20002;-88
2022/07/10 10:46:56;;;;;;;6.37;0.90;;;22.00;1.00;;;;;;6145507;23;20021;-89
2022/07/10 10:49:25;;;;;;;1.73;1.05;;;22.10;1.00;;;;;;6102547;23;20026;-88
2022/07/10 10:52:09;;;;;;;1.95;0.85;;;22.20;1.00;;;;;;6128440;23;20018;-89
2022/07/10 10:54:56;;;;;;;1.58;0.55;;;22.30;1.00;;;;;;6126590;23;20018;-89
2022/07/10 10:57:44;;;;;;;5.00;1.00;;;22.20;1.00;;;;;;6126535;23;20025;-89
2022/07/10 11:00:14;;;;;;;1.50;0.55;;;22.30;1.00;;;;;;6076982;23;20496;-89
2022/07/10 11:02:42;;;;;;;2.97;0.60;;;22.20;1.00;;;;;;6101447;23;20026;-88
2022/07/10 11:05:18;;;;;;;1.48;0.90;;;22.30;1.00;;;;;;6101327;23;20018;-89
2022/07/10 11:08:01;;;;;;;7.43;0.73;;;22.40;1.00;;;;;;6077439;23;20025;-89
2022/07/10 11:10:39;;;;;;;2.10;0.68;;;22.50;1.00;;;;;;6126639;23;20028;-89
2022/07/10 11:13:16;;;;;;;1.35;0.70;;;22.60;1.00;;;;;;6102455;23;20014;-89
2022/07/10 11:15:44;;;;;;;1.98;0.50;;;22.60;1.00;;;;;;6101369;23;20411;-88
2022/07/10 11:18:16;;;;;;;1.88;0.70;;;22.70;1.00;;;;;;6128110;23;20018;-88
2022/07/10 11:20:50;;;;;;;4.38;0.85;;;22.80;1.00;;;;;;6128275;23;20022;-88
2022/07/10 11:23:34;;;;;;;4.30;0.60;;;22.80;1.00;;;;;;6102225;23;20028;-89
2022/07/10 11:26:11;;;;;;;5.18;1.00;;;22.80;1.00;;;;;;6078453;23;20032;-89
2022/07/10 11:28:57;;;;;;;1.65;0.88;;;22.80;1.00;;;;;;6102921;23;20101;-89
2022/07/10 11:31:26;;;;;;;6.57;0.70;;;22.90;1.00;;;;;;6102644;23;20057;-88
2022/07/10 11:33:55;;;;;;;2.42;0.60;;;22.90;1.00;;;;;;6078163;23;20029;-88
2022/07/10 11:36:28;;;;;;;1.33;0.52;;;22.80;1.00;;;;;;6078463;23;20465;-88
2022/07/10 11:39:00;;;;;;;1.30;0.55;;;23.00;1.00;;;;;;6078471;23;20442;-88
2022/07/10 11:41:27;;;;;;;1.00;0.50;;;23.20;1.00;;;;;;6102725;23;20026;-88
2022/07/10 11:43:59;;;;;;;2.63;0.45;;;23.30;1.00;;;;;;6078046;23;20026;-88
2022/07/10 11:46:31;;;;;;;4.00;0.90;;;23.30;1.00;;;;;;6127862;23;20089;-88
2022/07/10 11:49:03;;;;;;;2.85;0.80;;;23.40;1.00;;;;;;6078395;23;20073;-89
2022/07/10 11:51:32;;;;;;;3.50;1.00;;;23.30;1.00;;;;;;6102259;23;20069;-89
2022/07/10 11:54:08;;;;;;;3.47;0.85;;;23.40;1.00;;;;;;6078429;23;20504;-90
2022/07/10 11:56:38;;;;;;;1.27;0.60;;;23.50;1.00;;;;;;6127925;23;20394;-89
2022/07/10 11:59:07;;;;;;;1.25;0.45;;;23.60;1.00;;;;;;6078388;23;20438;-89
2022/07/10 12:01:45;;;;;;;6.38;1.10;;;23.60;1.00;;;;;;6078234;23;20028;-89
2022/07/10 12:04:14;;;;;;;3.17;0.93;;;23.60;1.00;;;;;;6078174;23;20048;-89
2022/07/10 12:06:48;;;;;;;1.80;0.70;;;23.70;1.00;;;;;;6102685;23;20096;-88
2022/07/10 12:09:18;;;;;;;3.72;0.95;;;23.90;1.00;;;;;;6102788;23;20353;-89
2022/07/10 12:12:07;;;;;;;2.78;0.80;;;23.80;1.00;;;;;;6078198;23;20022;-88
2022/07/10 12:14:34;;;;;;;6.63;0.98;;;24.00;1.00;;;;;;6102046;23;20524;-89
2022/07/10 12:17:11;;;;;;;1.67;0.70;;;24.00;1.00;;;;;;6101855;23;20093;-88
2022/07/10 12:19:39;;;;;;;3.08;1.20;;;24.10;1.00;;;;;;6102477;23;20027;-89
2022/07/10 12:22:07;;;;;;;6.82;1.25;;;24.20;1.00;;;;;;6078195;23;20033;-89
2022/07/10 12:24:34;;;;;;;4.07;0.93;;;24.00;1.00;;;;;;6077617;23;20353;-88
2022/07/10 12:27:02;;;;;;;1.35;0.68;;;24.10;1.00;;;;;;6102013;23;20018;-88
2022/07/10 12:29:30;;;;;;;5.53;1.10;;;24.10;1.00;;;;;;6101719;23;20109;-88
2022/07/10 12:32:00;;;;;;;3.47;0.68;;;23.90;1.00;;;;;;6078195;23;20069;-89
2022/07/10 12:34:36;;;;;;;1.95;0.88;;;24.00;1.00;;;;;;6101707;23;20335;-88
2022/07/10 12:37:11;;;;;;;1.92;1.00;;;24.10;1.00;;;;;;6102409;23;20020;-89
2022/07/10 12:39:50;;;;;;;2.92;0.93;;;24.00;1.00;;;;;;6078068;23;20028;-89
2022/07/10 12:42:28;;;;;;;2.20;0.77;;;24.20;1.00;;;;;;6101311;23;20339;-89
2022/07/10 12:45:12;;;;;;;2.63;0.73;;;24.30;1.00;;;;;;6101685;23;20331;-89
2022/07/10 12:47:47;;;;;;;1.52;0.52;;;24.30;1.00;;;;;;6101886;23;20022;-88
2022/07/10 12:50:18;;;;;;;2.75;1.33;;;24.40;1.00;;;;;;6101583;23;20026;-89
2022/07/10 12:52:46;;;;;;;5.85;2.03;;;24.20;1.00;;;;;;6101390;23;20020;-89
2022/07/10 12:55:18;;;;;;;1.90;0.70;;;24.20;1.00;;;;;;6101661;23;20025;-88
2022/07/10 12:57:58;;;;;;;;;;;24.20;1.00;;;;;;6102029;23;20014;-89
2022/07/10 13:00:29;;;;;;;4.22;1.20;;;24.30;1.00;;;;;;6127591;23;19916;-88
2022/07/10 13:03:03;;;;;;;2.15;0.75;;;24.40;1.00;;;;;;6077661;23;20045;-89
2022/07/10 13:05:39;;;;;;;3.10;1.10;;;24.40;1.00;;;;;;6077169;23;20018;-88
2022/07/10 13:08:10;;;;;;;2.25;0.90;;;24.40;1.00;;;;;;6101537;23;20468;-89
2022/07/10 13:10:37;;;;;;;2.80;0.80;;;24.50;1.00;;;;;;6101202;23;20332;-89
2022/07/10 13:13:04;;;;;;;1.15;0.75;;;24.30;1.00;;;;;;6101321;23;20371;-89
2022/07/10 13:15:34;;;;;;;3.92;1.15;;;24.50;1.00;;;;;;6101411;23;20022;-89
2022/07/10 13:18:01;;;;;;;4.63;1.38;;;24.40;1.00;;;;;;6102109;23;20053;-88
2022/07/10 13:20:28;;;;;;;5.75;1.30;;;24.40;1.00;;;;;;6100181;23;20006;-89
2022/07/10 13:22:55;;;;;;;4.50;1.10;;;24.40;1.00;;;;;;6129291;23;20018;-89
2022/07/10 13:25:22;;;;;;;2.08;1.33;;;24.50;1.00;;;;;;6129850;23;20008;-88
2022/07/10 13:27:51;;;;;;;1.98;0.90;;;24.40;1.00;;;;;;6155165;23;20001;-87
2022/07/10 13:30:18;;;;;;;4.50;1.38;;;24.50;1.00;;;;;;6106031;23;20017;-89
2022/07/10 13:32:45;;;;;;;4.78;0.68;;;24.40;1.00;;;;;;6110212;23;20024;-88
2022/07/10 13:35:12;;;;;;;4.45;1.40;;;24.40;1.00;;;;;;6077609;23;20022;-88
2022/07/10 13:37:39;;;;;;;2.53;1.23;;;24.50;1.00;;;;;;6126913;23;20018;-88
2022/07/10 13:40:07;;;;;;;4.43;0.98;;;24.40;1.00;;;;;;6101015;23;20021;-88
2022/07/10 13:42:34;;;;;;;1.25;0.88;;;24.50;1.00;;;;;;6100912;23;20022;-88
2022/07/10 13:45:01;;;;;;;3.45;1.17;;;24.50;1.00;;;;;;6100790;23;20038;-88